Time;durP1;ratioP1;P1;durP2;ratioP2;P2;SDS_P1;SDS_P2;PMS_P1;PMS_P2;Temp;Humidity;BMP_temperature;BMP_pressure;BME280_temperature;BME280_humidity;BME280_pressure;Samples;Min_cycle;Max_cycle;Signal;HPM_P1;HPM_P2
2021/01/05 00:00:00;;;;;;;39.78;24.70;;;;;;;8.38;67.19;99882.53;5238554;27;20038;-85
2021/01/05 06:30:12;;;;;;;23.80;13.70;;;;;;;8.04;65.61;99849.50;5306232;26;210674;-85
2021/01/05 06:32:43;;;;;;;24.37;13.80;;;;;;;7.79;66.64;99846.97;5345397;26;20064;-84
2021/01/05 06:35:12;;;;;;;24.30;15.25;;;;;;;8.15;66.83;99845.97;5325550;26;20086;-84
2021/01/05 08:54:47;;;;;;;18.05;11.23;;;;;;;8.59;63.59;99915.56;5344833;26;20061;-84
2021/01/05 08:57:15;;;;;;;16.73;11.02;;;;;;;8.67;63.12;99906.78;5343715;26;20064;-85
2021/01/05 08:59:45;;;;;;;16.40;10.70;;;;;;;8.45;63.97;99906.06;5344051;26;20076;-84
2021/01/05 13:09:17;;;;;;;10.77;6.80;;;;;;;10.36;55.93;99861.50;5302912;26;21548;-84
2021/01/05 15:22:23;;;;;;;17.73;11.13;;;;;;;10.06;56.07;99944.06;5306128;26;20091;31
2021/01/05 15:24:52;;;;;;;16.80;11.75;;;;;;;9.85;56.12;99943.41;5337719;26;20177;-82
2021/01/05 15:27:19;;;;;;;27.93;11.70;;;;;;;9.64;57.16;99944.50;5340839;26;20116;-83
2021/01/05 15:29:47;;;;;;;15.70;9.70;;;;;;;9.69;56.64;99952.34;5340011;26;20056;-83
2021/01/05 15:32:14;;;;;;;18.15;10.88;;;;;;;9.18;57.35;99954.50;5322425;26;20122;-82
2021/01/05 15:34:43;;;;;;;16.92;9.27;;;;;;;8.96;58.33;99951.16;5323333;26;20072;-83
2021/01/05 15:37:09;;;;;;;20.88;9.18;;;;;;;8.43;60.06;99955.78;5343816;26;20079;-83
2021/01/05 15:39:36;;;;;;;12.23;8.23;;;;;;;8.43;60.45;99954.94;5344001;26;20056;-83
2021/01/05 15:42:03;;;;;;;14.60;8.07;;;;;;;8.28;60.83;99950.59;5343151;26;20057;-84
2021/01/05 15:44:30;;;;;;;14.52;8.27;;;;;;;8.72;59.51;99937.31;5341885;26;20052;-82
2021/01/05 15:47:17;;;;;;;15.25;7.50;;;;;;;7.89;62.31;99957.69;5341529;26;20064;-84
2021/01/05 15:49:48;;;;;;;11.73;7.80;;;;;;;8.16;61.16;99946.25;5338992;26;20056;-84
2021/01/05 15:52:17;;;;;;;;;;;;;;;7.96;61.07;99943.69;5341772;26;20065;-84
2021/01/05 15:54:47;;;;;;;10.77;7.85;;;;;;;8.16;61.26;99935.78;5343253;26;20019;-83
2021/01/05 15:57:14;;;;;;;;;;;;;;;7.49;62.93;99931.56;5340247;26;20538;-84
2021/01/05 15:59:40;;;;;;;41.47;26.55;;;;;;;7.16;64.02;99935.94;5342284;26;19955;-84
2021/01/05 16:02:11;;;;;;;35.45;21.98;;;;;;;7.03;64.41;99939.41;5340737;26;20113;-83
2021/01/05 16:04:38;;;;;;;35.20;21.65;;;;;;;6.20;67.76;99943.50;5342537;26;20070;-84
2021/01/05 16:07:10;;;;;;;42.28;26.83;;;;;;;7.01;65.25;99942.00;5343248;26;20059;-83
2021/01/05 16:09:36;;;;;;;47.83;30.00;;;;;;;7.79;62.33;99940.25;5342517;26;20069;-84
2021/01/05 16:12:03;;;;;;;57.95;38.30;;;;;;;7.93;61.83;99931.50;5342638;26;20419;-85
2021/01/05 16:14:29;;;;;;;58.05;39.85;;;;;;;8.04;61.12;99925.37;5343595;26;20075;-85
2021/01/05 16:16:56;;;;;;;77.68;52.33;;;;;;;8.06;61.94;99931.44;5322920;26;20576;-86
2021/01/05 16:19:24;;;;;;;108.80;70.97;;;;;;;8.49;60.55;99939.19;5343704;26;20087;-85
2021/01/05 16:21:56;;;;;;;102.32;64.65;;;;;;;8.64;59.27;99924.25;5342440;26;20132;-85
2021/01/05 16:24:24;;;;;;;71.35;47.65;;;;;;;8.49;59.81;99926.09;5342446;26;20111;-85
2021/01/05 16:26:51;;;;;;;109.68;75.22;;;;;;;8.70;59.41;99933.81;5340782;26;20866;-85
2021/01/05 16:29:18;;;;;;;107.72;72.60;;;;;;;8.24;60.48;99927.94;5342684;26;20053;-85
2021/01/05 16:31:53;;;;;;;101.78;73.60;;;;;;;8.11;60.68;99927.94;5342955;26;20060;-85
2021/01/05 16:34:20;;;;;;;123.57;93.97;;;;;;;8.27;60.20;99938.38;5322338;26;20115;-85
2021/01/05 16:36:47;;;;;;;111.65;81.90;;;;;;;7.93;60.39;99934.09;5322885;26;20110;-85
2021/01/05 16:39:14;;;;;;;110.15;79.97;;;;;;;7.83;60.56;99927.16;5342486;26;20109;-85
2021/01/05 16:41:40;;;;;;;100.55;77.00;;;;;;;8.07;59.87;99930.59;5340353;26;20817;-86
2021/01/05 16:44:07;;;;;;;90.75;69.95;;;;;;;8.07;60.65;99930.59;5341452;26;20060;-85
2021/01/05 16:46:42;;;;;;;100.80;78.20;;;;;;;7.93;60.72;99928.88;5322086;26;20057;-85
2021/01/05 16:49:11;;;;;;;110.18;80.22;;;;;;;8.06;60.80;99929.72;5342534;26;20496;-85
2021/01/05 16:51:37;;;;;;;90.07;66.55;;;;;;;8.19;60.31;99943.62;5341770;26;20363;-85
2021/01/05 16:54:05;;;;;;;87.03;63.75;;;;;;;7.83;60.87;99940.25;5342353;26;20056;-85
2021/01/05 16:56:32;;;;;;;98.62;70.82;;;;;;;8.07;60.19;99951.53;5341085;26;20052;-85
2021/01/05 16:58:58;;;;;;;100.47;75.15;;;;;;;8.17;59.77;99948.00;5322411;26;20060;-85
2021/01/05 17:01:25;;;;;;;106.32;76.93;;;;;;;7.57;61.11;99944.66;5341620;26;20067;-85
2021/01/05 17:04:10;;;;;;;102.05;73.28;;;;;;;7.82;60.34;99948.94;5324805;26;20068;-85
2021/01/05 17:06:39;;;;;;;86.80;62.42;;;;;;;7.77;60.96;99947.25;5342352;26;20063;-85
2021/01/05 17:09:09;;;;;;;90.93;62.83;;;;;;;7.83;60.83;99944.62;5321702;26;20090;-85
2021/01/05 17:11:35;;;;;;;73.18;48.90;;;;;;;7.91;60.14;99940.22;5321539;26;20057;-85
2021/01/05 17:14:02;;;;;;;74.85;49.90;;;;;;;7.18;63.01;99960.31;5322039;26;20072;-85
2021/01/05 17:16:33;;;;;;;77.93;51.70;;;;;;;7.00;63.47;99958.56;5342384;26;20447;-86
2021/01/05 17:18:59;;;;;;;91.85;66.28;;;;;;;6.92;64.42;99952.44;5322350;26;20060;-85
2021/01/05 17:21:26;;;;;;;93.90;66.45;;;;;;;6.54;66.18;99952.34;5339688;26;20128;-85
2021/01/05 17:23:56;;;;;;;93.47;67.28;;;;;;;7.05;64.56;99954.19;5341673;26;20124;-86
2021/01/05 17:26:24;;;;;;;;;;;;;;;7.37;63.62;99949.88;5342315;26;20118;-85
2021/01/05 17:28:50;;;;;;;93.78;66.20;;;;;;;6.83;63.95;99939.37;5341783;26;19952;-85
2021/01/05 17:31:17;;;;;;;137.43;95.95;;;;;;;5.69;68.78;99943.19;5341112;26;20087;-85
2021/01/05 17:33:44;;;;;;;175.23;124.53;;;;;;;6.04;68.43;99935.59;5342089;26;20082;-85
2021/01/05 17:36:11;;;;;;;144.37;104.18;;;;;;;6.35;67.60;99933.13;5341171;26;20079;-85
2021/01/05 17:38:42;;;;;;;124.72;83.97;;;;;;;6.60;66.72;99931.47;5322807;26;20059;-85
2021/01/05 17:41:08;;;;;;;132.40;94.50;;;;;;;6.87;65.87;99921.97;5340707;26;20115;-86
2021/01/05 17:43:35;;;;;;;107.12;78.53;;;;;;;7.12;64.63;99925.47;5339145;26;20075;-85
2021/01/05 17:46:02;;;;;;;73.72;53.10;;;;;;;6.99;64.59;99935.91;5322144;26;20061;-86
2021/01/05 17:48:29;;;;;;;105.25;73.32;;;;;;;6.98;64.56;99934.16;5341746;26;20063;-86
2021/01/05 17:50:56;;;;;;;115.10;81.93;;;;;;;5.87;68.26;99921.56;5340787;26;20520;-85
2021/01/05 17:53:23;;;;;;;90.50;65.07;;;;;;;6.17;67.31;99920.88;5339729;26;20063;-85
2021/01/05 17:55:50;;;;;;;77.43;56.28;;;;;;;5.62;69.22;99929.25;5341885;26;20105;-85
2021/01/05 17:58:16;;;;;;;117.68;81.32;;;;;;;5.30;70.63;99923.81;5322214;26;20067;-85
2021/01/05 18:00:43;;;;;;;104.28;73.93;;;;;;;6.37;66.75;99937.47;5341137;26;20083;-85
2021/01/05 18:03:09;;;;;;;104.57;72.82;;;;;;;6.58;65.76;99936.69;5342066;26;20079;-86
2021/01/05 18:05:36;;;;;;;98.90;67.93;;;;;;;6.48;65.64;99921.00;5341382;26;20426;-85
2021/01/05 18:08:03;;;;;;;93.37;62.70;;;;;;;6.37;65.39;99934.00;5340444;26;20065;-85
2021/01/05 18:10:33;;;;;;;79.68;56.78;;;;;;;5.96;66.38;99941.66;5341486;26;20060;-86
2021/01/05 18:13:00;;;;;;;57.83;40.10;;;;;;;6.33;64.37;99947.94;5341173;26;20106;-85
2021/01/05 18:15:30;;;;;;;51.45;35.47;;;;;;;6.70;62.98;99953.25;5341243;26;20096;-86
2021/01/05 18:17:57;;;;;;;;;;;;;;;6.65;63.19;99962.81;5321314;26;20068;-85
2021/01/05 18:20:26;;;;;;;60.50;41.20;;;;;;;6.73;62.42;99961.97;5342120;26;19967;-86
2021/01/05 18:22:53;;;;;;;62.90;43.03;;;;;;;6.19;64.49;99952.19;5321715;26;20071;-85
2021/01/05 18:25:24;;;;;;;61.70;41.90;;;;;;;6.22;64.67;99950.47;5339910;26;20437;-86
2021/01/05 18:27:50;;;;;;;57.55;39.42;;;;;;;6.53;63.72;99967.12;5321909;26;20057;-86
2021/01/05 18:30:19;;;;;;;59.60;41.10;;;;;;;6.74;63.24;99966.34;5341795;26;20072;-85
2021/01/05 18:32:46;;;;;;;60.42;40.80;;;;;;;6.74;63.17;99965.47;5302959;26;20060;-85
2021/01/05 18:35:16;;;;;;;54.17;39.03;;;;;;;6.80;62.68;99966.34;5321347;26;20073;-85
2021/01/05 18:37:47;;;;;;;53.95;38.15;;;;;;;6.91;62.28;99971.63;5341535;26;20605;-85
2021/01/05 18:40:30;;;;;;;58.97;39.80;;;;;;;7.00;62.00;99974.25;5321285;26;20083;-85
2021/01/05 18:42:58;;;;;;;52.78;36.05;;;;;;;6.95;62.50;99975.97;5340041;26;20052;-85
2021/01/05 18:45:27;;;;;;;57.08;40.42;;;;;;;6.03;65.24;99967.78;5320919;26;20066;-85
2021/01/05 18:47:56;;;;;;;60.63;40.33;;;;;;;6.04;65.85;99971.25;5341885;26;20045;-85
2021/01/05 18:50:27;;;;;;;57.58;43.80;;;;;;;6.60;64.09;99984.56;5341655;26;20410;-85
2021/01/05 18:52:54;;;;;;;55.08;36.88;;;;;;;6.80;63.50;99995.06;5321557;26;20075;-85
2021/01/05 18:55:25;;;;;;;49.25;33.63;;;;;;;6.79;63.95;99988.13;5341827;26;20116;-85
2021/01/05 18:57:52;;;;;;;;;;;;;;;7.08;63.35;99981.19;5341826;26;20124;-85
2021/01/05 19:00:22;;;;;;;37.50;26.92;;;;;;;6.17;66.38;99986.09;5339880;26;20002;-85
2021/01/05 19:02:49;;;;;;;42.30;26.98;;;;;;;5.76;68.33;99991.88;5321443;26;20117;-85
2021/01/05 19:05:16;;;;;;;42.85;28.58;;;;;;;5.87;68.34;99990.22;5321436;26;20052;-85
2021/01/05 19:07:43;;;;;;;40.90;29.27;;;;;;;4.99;71.57;100005.97;5340838;26;20052;-85
2021/01/05 19:10:10;;;;;;;48.90;35.80;;;;;;;5.28;69.87;99993.25;5339665;26;20462;-85
2021/01/05 19:12:37;;;;;;;64.75;50.15;;;;;;;5.50;69.74;99986.50;5341170;26;20073;-85
2021/01/05 19:15:05;;;;;;;41.10;29.15;;;;;;;6.11;67.18;99994.75;5341920;26;20112;-85
2021/01/05 19:17:31;;;;;;;46.00;33.17;;;;;;;6.17;66.74;99982.62;5341380;26;20072;-86
2021/01/05 19:19:58;;;;;;;80.30;59.70;;;;;;;5.32;69.87;99981.09;5320954;26;20418;-85
2021/01/05 19:22:26;;;;;;;146.07;106.68;;;;;;;6.01;67.91;99973.84;5339886;26;20110;-85
2021/01/05 19:24:53;;;;;;;179.87;125.87;;;;;;;5.95;68.21;99968.59;5339486;26;20071;-85
2021/01/05 19:27:20;;;;;;;199.57;136.32;;;;;;;5.92;68.39;99965.06;5321936;26;20113;-85
2021/01/05 19:29:48;;;;;;;154.90;109.32;;;;;;;6.46;66.60;99959.28;5341652;26;20486;-85
2021/01/05 19:32:16;;;;;;;129.18;94.25;;;;;;;6.13;67.44;99953.03;5321163;26;20083;-85
2021/01/05 19:34:42;;;;;;;87.70;64.12;;;;;;;6.58;65.79;99957.56;5340127;26;20127;-85
2021/01/05 19:37:15;;;;;;;79.78;56.80;;;;;;;5.60;69.08;99945.72;5339977;26;20119;-85
2021/01/05 19:39:42;;;;;;;66.22;39.55;;;;;;;6.17;66.82;99952.19;5321535;26;20075;-85
2021/01/05 19:42:09;;;;;;;76.75;49.97;;;;;;;6.03;66.89;99961.66;5341434;26;20214;-85
2021/01/05 19:44:40;;;;;;;80.93;55.40;;;;;;;6.31;66.05;99970.50;5341254;26;20056;-87
2021/01/05 19:47:10;;;;;;;76.43;50.83;;;;;;;6.23;66.20;99977.44;5339897;26;20398;-85
2021/01/05 19:49:38;;;;;;;56.35;39.30;;;;;;;6.34;65.73;99971.41;5342332;26;20135;-85
2021/01/05 19:52:05;;;;;;;59.00;39.33;;;;;;;6.12;65.97;99974.78;5342323;26;20083;-86
2021/01/05 19:54:32;;;;;;;36.88;26.05;;;;;;;6.54;64.62;99979.31;5341094;26;20494;-85
2021/01/05 19:56:59;;;;;;;26.95;18.77;;;;;;;6.20;65.20;99975.66;5322399;26;20063;-86
2021/01/05 19:59:26;;;;;;;22.30;16.27;;;;;;;5.45;67.40;99982.97;5322338;26;20057;-85
2021/01/05 20:01:53;;;;;;;28.05;20.50;;;;;;;5.86;66.41;99987.63;5322417;26;20061;-86
2021/01/05 20:04:19;;;;;;;24.50;17.65;;;;;;;5.78;66.29;99991.91;5322215;26;20061;-85
2021/01/05 20:06:52;;;;;;;24.65;16.17;;;;;;;5.84;65.80;99998.03;5342493;26;20052;-85
2021/01/05 20:09:22;;;;;;;24.50;17.65;;;;;;;6.05;65.00;100004.28;5342281;26;20418;-85
2021/01/05 20:12:01;;;;;;;26.75;18.40;;;;;;;5.88;65.02;100005.03;5340779;26;20099;-85
2021/01/05 20:14:28;;;;;;;24.17;18.45;;;;;;;6.26;64.03;100014.84;5322167;26;20372;-86
2021/01/05 20:16:55;;;;;;;24.83;17.52;;;;;;;6.03;64.47;100012.12;5340785;26;20098;-86
2021/01/05 20:19:22;;;;;;;24.23;17.02;;;;;;;5.95;65.19;100013.78;5322494;26;20106;-85
2021/01/05 20:21:54;;;;;;;112.72;68.00;;;;;;;5.70;66.21;100012.69;5342144;26;20426;-85
2021/01/05 20:24:22;;;;;;;157.18;91.72;;;;;;;5.63;66.89;100017.00;5321970;26;20057;-85
2021/01/05 20:26:49;;;;;;;100.70;67.47;;;;;;;5.69;66.97;100024.00;5342340;26;20044;-85
2021/01/05 20:29:16;;;;;;;81.75;54.40;;;;;;;6.06;65.48;100019.97;5342114;26;20072;-86
2021/01/05 20:31:43;;;;;;;58.83;39.60;;;;;;;6.29;64.87;100027.91;5340500;26;20107;-85
2021/01/05 20:34:10;;;;;;;81.28;52.92;;;;;;;6.39;64.34;100033.19;5341826;26;20053;-85
2021/01/05 20:36:39;;;;;;;73.37;50.30;;;;;;;6.40;64.46;100021.88;5342132;26;20465;-85
2021/01/05 20:39:08;;;;;;;75.70;52.67;;;;;;;6.36;64.71;100026.22;5342129;26;20112;-87
2021/01/05 20:41:44;;;;;;;72.62;47.33;;;;;;;6.51;64.46;100031.50;5342179;26;20060;-85
2021/01/05 20:44:13;;;;;;;63.63;39.92;;;;;;;6.31;65.45;100028.78;5322065;26;20060;-85
2021/01/05 20:46:40;;;;;;;60.78;41.47;;;;;;;6.34;65.10;100038.38;5342245;26;20346;-85
2021/01/05 20:49:07;;;;;;;47.85;34.83;;;;;;;6.37;65.12;100030.56;5340347;26;20119;-85
2021/01/05 20:51:36;;;;;;;42.08;31.48;;;;;;;6.01;66.53;100026.87;5322285;26;20082;-85
2021/01/05 20:54:05;;;;;;;39.03;29.27;;;;;;;5.96;66.63;100031.19;5341991;26;20418;-86
2021/01/05 20:56:33;;;;;;;27.42;19.60;;;;;;;6.32;65.39;100021.81;5342188;26;20049;-86
2021/01/05 20:58:59;;;;;;;34.60;24.08;;;;;;;6.47;64.78;100015.81;5342119;26;20410;-86
2021/01/05 21:01:26;;;;;;;42.08;28.12;;;;;;;6.59;64.47;100028.94;5342271;26;20060;-85
2021/01/05 21:03:53;;;;;;;35.78;26.27;;;;;;;6.29;65.08;100029.63;5340241;26;20054;-85
2021/01/05 21:06:20;;;;;;;34.25;25.15;;;;;;;6.57;64.50;100025.44;5340752;26;20067;-85
2021/01/05 21:08:48;;;;;;;35.33;25.17;;;;;;;6.74;63.94;100022.91;5341965;26;20406;-85
2021/01/05 21:11:16;;;;;;;31.42;20.52;;;;;;;6.74;63.93;100031.62;5341978;26;20073;-85
2021/01/05 21:13:42;;;;;;;22.55;16.50;;;;;;;6.86;63.59;100028.16;5341942;26;20123;-86
2021/01/05 21:16:10;;;;;;;30.70;21.23;;;;;;;6.62;64.74;100028.97;5342084;26;20343;-85
2021/01/05 21:18:37;;;;;;;25.12;18.12;;;;;;;6.81;64.07;100037.72;5340377;26;20385;-85
2021/01/05 21:21:04;;;;;;;22.58;15.57;;;;;;;6.87;63.93;100034.25;5340622;26;20095;-85
2021/01/05 21:23:31;;;;;;;16.70;11.73;;;;;;;6.79;63.86;100035.12;5340363;26;20049;-85
2021/01/05 21:25:58;;;;;;;19.98;11.40;;;;;;;6.92;63.42;100040.37;5341657;26;20057;-85
2021/01/05 21:28:24;;;;;;;20.37;13.98;;;;;;;6.52;65.23;100029.75;5340558;26;20111;-85
2021/01/05 21:30:51;;;;;;;22.27;14.25;;;;;;;6.20;66.96;100026.97;5340582;26;20075;-85
2021/01/05 21:33:18;;;;;;;23.40;15.85;;;;;;;5.98;67.40;100021.62;5341749;26;20472;-85
2021/01/05 21:35:47;;;;;;;47.00;29.92;;;;;;;6.37;66.24;100012.28;5341827;26;20120;-84
2021/01/05 21:38:18;;;;;;;46.22;28.30;;;;;;;5.23;70.67;100011.44;5341732;26;20107;-85
2021/01/05 21:40:50;;;;;;;50.67;32.72;;;;;;;5.75;69.39;100002.31;5341983;26;20072;-85
2021/01/05 21:43:17;;;;;;;58.87;36.78;;;;;;;5.66;69.95;99996.16;5341679;26;20052;-85
2021/01/05 21:45:44;;;;;;;46.22;30.52;;;;;;;5.65;70.03;99996.16;5341795;26;20076;-85
2021/01/05 21:48:12;;;;;;;36.97;24.65;;;;;;;6.11;68.36;99991.28;5341957;26;20497;-85
2021/01/05 21:50:40;;;;;;;35.25;22.80;;;;;;;5.67;70.25;99991.81;5322041;26;20167;-85
2021/01/05 21:53:14;;;;;;;31.50;20.02;;;;;;;5.11;72.44;99995.69;5340358;26;20202;-86
2021/01/05 21:55:49;;;;;;;37.80;22.67;;;;;;;5.45;71.86;99996.00;5322028;26;20454;-85
2021/01/05 21:58:25;;;;;;;29.87;18.12;;;;;;;5.20;72.15;99980.13;5340343;26;20105;-85
2021/01/05 22:00:53;;;;;;;31.15;18.37;;;;;;;5.39;71.83;99982.94;5322058;26;20064;-85
2021/01/05 22:03:24;;;;;;;28.48;17.70;;;;;;;5.30;72.25;99980.25;5340572;26;20103;-85
2021/01/05 22:05:50;;;;;;;33.45;19.42;;;;;;;4.96;73.96;99972.97;5341711;26;20052;-85
2021/01/05 22:08:18;;;;;;;28.70;18.15;;;;;;;4.64;75.65;99980.41;5340473;26;20458;-85
2021/01/05 22:10:44;;;;;;;29.70;19.80;;;;;;;4.81;75.01;99959.78;5341226;26;20121;-85
2021/01/05 22:13:17;;;;;;;29.52;19.05;;;;;;;4.46;76.38;99952.47;5321970;26;20053;-84
2021/01/05 22:15:45;;;;;;;29.92;19.27;;;;;;;4.36;76.59;99954.97;5341911;26;20048;-84
2021/01/05 22:18:11;;;;;;;32.45;21.15;;;;;;;4.47;76.92;99956.84;5341721;26;20087;-84
2021/01/05 22:20:38;;;;;;;30.65;19.50;;;;;;;4.59;75.95;99955.19;5321595;26;20068;-85
2021/01/05 22:23:11;;;;;;;31.62;19.33;;;;;;;4.44;76.64;99946.41;5341934;26;20069;-85
2021/01/05 22:25:37;;;;;;;28.70;17.27;;;;;;;4.65;76.28;99937.09;5298556;27;20122;-85
2021/01/05 22:28:06;;;;;;;25.48;16.35;;;;;;;4.92;74.87;99934.75;5209157;27;20096;-85
2021/01/05 22:30:33;;;;;;;24.73;15.88;;;;;;;4.18;77.61;99930.47;5208973;27;20058;-85
2021/01/05 22:33:00;;;;;;;24.58;17.10;;;;;;;4.37;76.64;99930.69;5208953;27;20073;-85
2021/01/05 22:35:44;;;;;;;40.95;22.92;;;;;;;4.23;77.62;99918.38;5298710;27;20058;-85
2021/01/05 22:38:14;;;;;;;40.40;24.37;;;;;;;4.23;77.90;99902.78;5209153;27;20062;-85
2021/01/05 22:40:41;;;;;;;27.58;15.93;;;;;;;4.28;78.20;99895.03;5209202;27;20083;-84
2021/01/05 22:43:12;;;;;;;23.52;13.40;;;;;;;4.45;76.41;99888.28;5208630;27;20054;-85
2021/01/05 22:45:39;;;;;;;22.65;13.18;;;;;;;4.17;77.42;99889.69;5208884;27;20087;-84
2021/01/05 22:48:07;;;;;;;23.73;14.25;;;;;;;4.33;76.13;99890.78;5298912;27;20416;-84
2021/01/05 22:50:34;;;;;;;22.75;13.82;;;;;;;4.62;74.58;99874.56;5298387;27;20066;-84
2021/01/05 22:53:10;;;;;;;22.60;13.65;;;;;;;4.44;75.13;99880.47;5298102;27;20082;-84
2021/01/05 22:55:42;;;;;;;21.10;12.15;;;;;;;4.39;75.46;99885.63;5299079;27;20097;-84
2021/01/05 22:58:14;;;;;;;18.73;11.95;;;;;;;4.37;75.51;99874.31;5298904;27;20443;-84
2021/01/05 23:00:44;;;;;;;20.33;11.18;;;;;;;4.10;76.12;99888.75;5208982;27;20476;-84
2021/01/05 23:03:11;;;;;;;20.85;12.63;;;;;;;4.32;75.08;99889.91;5298810;27;20059;-84
2021/01/05 23:05:37;;;;;;;20.23;12.43;;;;;;;4.25;75.22;99889.81;5298204;27;20085;-84
2021/01/05 23:08:12;;;;;;;20.48;12.98;;;;;;;4.17;75.88;99878.44;5298635;27;20067;-85
2021/01/05 23:10:40;;;;;;;19.87;12.25;;;;;;;4.73;72.99;99891.16;5208990;27;20062;-85
2021/01/05 23:13:07;;;;;;;25.23;13.98;;;;;;;4.81;72.75;99884.31;5208540;27;20628;-85
2021/01/05 23:15:35;;;;;;;24.98;14.85;;;;;;;4.13;75.11;99879.25;5208911;27;20051;-85
2021/01/05 23:18:12;;;;;;;30.05;18.17;;;;;;;4.27;75.30;99872.50;5208773;27;20063;-84
2021/01/05 23:20:42;;;;;;;25.65;15.35;;;;;;;3.91;76.34;99862.50;5208895;27;20059;-85
2021/01/05 23:23:09;;;;;;;25.10;16.60;;;;;;;3.77;77.10;99850.22;5300012;27;20416;-83
2021/01/05 23:25:36;;;;;;;21.17;12.65;;;;;;;3.78;77.70;99841.56;5318154;26;20078;-84
2021/01/05 23:28:03;;;;;;;22.27;13.27;;;;;;;3.95;76.88;99839.19;5324063;26;20383;-85
2021/01/05 23:30:33;;;;;;;22.05;13.10;;;;;;;3.91;77.69;99852.97;5343940;26;20052;-85
2021/01/05 23:33:01;;;;;;;25.02;14.18;;;;;;;3.80;77.56;99862.41;5344133;26;20104;-85
2021/01/05 23:35:31;;;;;;;22.62;13.60;;;;;;;4.10;77.00;99852.34;5342502;26;20106;-85
2021/01/05 23:38:00;;;;;;;24.83;15.27;;;;;;;4.34;75.90;99866.50;5344094;26;20063;-85
2021/01/05 23:40:28;;;;;;;20.75;12.75;;;;;;;4.29;76.07;99866.47;5342355;26;20064;-85
2021/01/05 23:42:55;;;;;;;23.42;13.95;;;;;;;4.27;76.34;99862.97;5324332;26;20057;-84
2021/01/05 23:45:26;;;;;;;23.77;14.25;;;;;;;4.20;76.54;99866.31;5343754;26;20299;-85
2021/01/05 23:47:53;;;;;;;24.05;14.75;;;;;;;3.98;77.32;99865.22;5344155;26;20053;-84
2021/01/05 23:50:21;;;;;;;23.15;13.85;;;;;;;4.67;75.14;99857.28;5323942;26;20075;-84
2021/01/05 23:52:48;;;;;;;23.27;14.27;;;;;;;4.09;76.55;99874.03;5343893;26;20414;-84
2021/01/05 23:55:14;;;;;;;25.10;14.05;;;;;;;3.79;77.82;99877.09;5343796;26;20053;-84
2021/01/05 23:57:40;;;;;;;26.23;15.68;;;;;;;4.15;77.25;99864.53;5343809;26;20080;-84
